Time;durP1;ratioP1;P1;durP2;ratioP2;P2;SDS_P1;SDS_P2;PMS_P1;PMS_P2;Temp;Humidity;BMP_temperature;BMP_pressure;BME280_temperature;BME280_humidity;BME280_pressure;Samples;Min_cycle;Max_cycle;Signal;HPM_P1;HPM_P2
2022/07/12 00:01:57;;;;;;;3.60;3.00;;;16.30;99.90;;;;;;4999438;28;20050;-66
2022/07/12 00:04:23;;;;;;;3.92;2.97;;;16.30;99.90;;;;;;4995222;28;20054;-67
2022/07/12 00:06:49;;;;;;;3.20;2.90;;;16.30;99.90;;;;;;4976148;28;20050;-70
2022/07/12 00:09:15;;;;;;;3.63;3.33;;;16.30;99.90;;;;;;4998989;28;20184;-69
2022/07/12 00:11:41;;;;;;;3.38;2.97;;;16.30;99.90;;;;;;4996637;28;20641;-67
2022/07/12 00:14:09;;;;;;;3.13;2.80;;;16.20;99.90;;;;;;4998281;28;20060;-65
2022/07/12 00:16:35;;;;;;;2.92;2.63;;;16.20;99.90;;;;;;4981897;28;20676;-71
2022/07/12 00:19:01;;;;;;;3.72;3.38;;;16.20;99.90;;;;;;4998356;28;20042;-68
2022/07/12 00:21:27;;;;;;;3.30;2.92;;;16.20;99.90;;;;;;4996320;28;20062;-70
2022/07/12 00:23:53;;;;;;;3.63;2.95;;;16.20;99.90;;;;;;5010149;28;20127;-70
2022/07/12 00:26:19;;;;;;;2.92;2.63;;;16.20;99.90;;;;;;4979429;28;20183;-69
2022/07/12 00:28:45;;;;;;;2.90;2.70;;;16.20;99.90;;;;;;4962992;28;20506;-66
2022/07/12 00:31:11;;;;;;;3.17;2.85;;;16.20;99.90;;;;;;4991343;28;20511;-69
2022/07/12 00:33:36;;;;;;;3.50;3.00;;;16.20;99.90;;;;;;4997812;28;20129;-68
2022/07/12 00:36:03;;;;;;;4.50;2.97;;;16.20;99.90;;;;;;4994418;28;20050;-71
2022/07/12 00:38:29;;;;;;;3.00;2.70;;;16.20;99.90;;;;;;4973051;28;20053;-70
2022/07/12 00:40:55;;;;;;;3.50;3.20;;;16.20;99.90;;;;;;4997566;28;20492;-66
2022/07/12 00:43:21;;;;;;;4.05;3.15;;;16.20;99.90;;;;;;4977057;28;20133;-68
2022/07/12 00:45:47;;;;;;;3.05;2.75;;;16.20;99.90;;;;;;4998681;28;20038;-69
2022/07/12 00:48:13;;;;;;;3.55;2.78;;;16.10;99.90;;;;;;4996893;28;20050;-68
2022/07/12 00:50:39;;;;;;;3.53;2.78;;;16.10;99.90;;;;;;4989311;28;20050;-67
2022/07/12 00:53:05;;;;;;;5.07;3.20;;;16.10;99.90;;;;;;4996922;28;20334;-70
2022/07/12 00:55:31;;;;;;;3.58;3.10;;;16.10;99.90;;;;;;4971262;28;20100;-67
2022/07/12 00:57:57;;;;;;;3.30;3.00;;;16.10;99.90;;;;;;4976755;28;20412;-70
2022/07/12 01:00:26;;;;;;;3.00;2.70;;;16.10;99.90;;;;;;5010475;28;20050;-71
2022/07/12 01:02:54;;;;;;;3.70;2.72;;;16.10;99.90;;;;;;4996214;28;20531;-69
2022/07/12 01:05:21;;;;;;;4.15;3.20;;;16.10;99.90;;;;;;4993030;28;20392;-70
2022/07/12 01:07:46;;;;;;;3.50;3.20;;;16.10;99.90;;;;;;4982871;28;20252;-67
2022/07/12 01:10:12;;;;;;;3.42;3.13;;;16.10;99.90;;;;;;4975688;28;20045;-67
2022/07/12 01:12:38;;;;;;;5.22;3.28;;;16.10;99.90;;;;;;4993361;28;20469;-69
2022/07/12 01:15:09;;;;;;;3.78;3.20;;;16.10;99.90;;;;;;4981717;28;20038;-68
2022/07/12 01:17:35;;;;;;;4.63;3.20;;;16.10;99.90;;;;;;5011469;28;20524;-69
2022/07/12 01:20:04;;;;;;;3.72;3.00;;;16.10;99.90;;;;;;4974235;28;20081;-69
2022/07/12 01:22:32;;;;;;;5.40;3.50;;;16.10;99.90;;;;;;4976996;28;20062;-67
2022/07/12 01:25:00;;;;;;;4.38;3.35;;;16.10;99.90;;;;;;4982858;28;20393;-68
2022/07/12 01:27:26;;;;;;;3.40;3.10;;;16.10;99.90;;;;;;4999858;28;20050;-66
2022/07/12 01:29:52;;;;;;;3.40;3.10;;;16.10;99.90;;;;;;4998040;28;20064;-66
2022/07/12 01:32:24;;;;;;;3.58;3.20;;;16.10;99.90;;;;;;4992937;28;20046;-68
2022/07/12 01:34:53;;;;;;;3.35;2.92;;;16.10;99.90;;;;;;4993943;28;20142;-66
2022/07/12 01:37:21;;;;;;;3.10;2.80;;;16.10;99.90;;;;;;4995995;28;20472;-71
2022/07/12 01:39:49;;;;;;;3.10;2.80;;;16.10;99.90;;;;;;4999302;28;20132;-70
2022/07/12 01:42:15;;;;;;;3.72;3.35;;;16.10;99.90;;;;;;4977845;28;20120;-69
2022/07/12 01:44:41;;;;;;;4.18;3.08;;;16.10;99.90;;;;;;4996558;28;20054;-67
2022/07/12 01:47:07;;;;;;;4.43;3.72;;;16.10;99.90;;;;;;4997907;28;20124;-68
2022/07/12 01:49:33;;;;;;;3.90;3.30;;;16.10;99.90;;;;;;4996958;28;20045;-69
2022/07/12 01:51:59;;;;;;;4.03;3.50;;;16.00;99.90;;;;;;4996893;28;20038;-67
2022/07/12 01:54:26;;;;;;;3.78;3.42;;;16.00;99.90;;;;;;4991106;28;20057;-69
2022/07/12 01:56:52;;;;;;;3.78;3.38;;;16.00;99.90;;;;;;4996519;28;20057;-69
2022/07/12 01:59:19;;;;;;;3.35;3.05;;;15.90;99.90;;;;;;4996380;28;20080;-68
2022/07/12 02:01:45;;;;;;;3.50;3.20;;;15.90;99.90;;;;;;4995715;28;20057;-66
2022/07/12 02:04:15;;;;;;;4.05;3.47;;;15.90;99.90;;;;;;4964452;28;20088;-67
2022/07/12 02:06:42;;;;;;;5.55;3.97;;;15.90;99.90;;;;;;4993616;28;20125;-68
2022/07/12 02:09:08;;;;;;;4.72;4.10;;;15.90;99.90;;;;;;4980436;28;20412;-69
2022/07/12 02:11:34;;;;;;;4.90;3.90;;;15.90;99.90;;;;;;4998938;28;20038;-68
2022/07/12 02:14:00;;;;;;;4.93;3.90;;;15.90;99.90;;;;;;4985157;28;21043;-69
2022/07/12 02:16:26;;;;;;;5.03;3.95;;;15.90;99.90;;;;;;4981252;28;20046;-69
2022/07/12 02:18:51;;;;;;;5.85;4.05;;;15.90;99.90;;;;;;4982026;28;20042;-67
2022/07/12 02:21:17;;;;;;;5.25;4.15;;;15.80;99.90;;;;;;4983247;28;20447;-69
2022/07/12 02:23:43;;;;;;;6.00;3.95;;;15.90;99.90;;;;;;4997439;28;20041;-69
2022/07/12 02:26:09;;;;;;;5.00;4.50;;;15.80;99.90;;;;;;5001229;28;20124;-69
2022/07/12 02:28:34;;;;;;;7.07;4.07;;;15.80;99.90;;;;;;4983772;28;20267;-68
2022/07/12 02:31:00;;;;;;;4.65;4.15;;;15.80;99.90;;;;;;5002946;28;20081;-68
2022/07/12 02:33:27;;;;;;;5.85;4.35;;;15.80;99.90;;;;;;5014828;28;20128;-70
2022/07/12 02:35:52;;;;;;;5.03;4.53;;;15.80;99.90;;;;;;5000283;28;20483;-68
2022/07/12 02:38:20;;;;;;;7.20;4.55;;;15.80;99.90;;;;;;4981114;28;20103;-69
2022/07/12 02:40:55;;;;;;;7.68;4.60;;;15.80;99.90;;;;;;4980556;28;20069;-69
2022/07/12 02:43:22;;;;;;;5.40;4.40;;;15.70;99.90;;;;;;4982816;28;20052;-70
2022/07/12 02:45:48;;;;;;;5.63;5.03;;;15.70;99.90;;;;;;5000700;28;20064;-67
2022/07/12 02:48:14;;;;;;;6.03;5.03;;;15.70;99.90;;;;;;4999592;28;20085;-70
2022/07/12 02:50:40;;;;;;;6.05;5.00;;;15.70;99.90;;;;;;5001707;28;20149;-67
2022/07/12 02:53:07;;;;;;;5.45;4.95;;;15.70;99.90;;;;;;4984001;28;20504;-70
2022/07/12 02:55:34;;;;;;;5.30;4.80;;;15.60;99.90;;;;;;5003185;28;20046;-70
2022/07/12 02:58:00;;;;;;;5.88;4.85;;;15.60;99.90;;;;;;5001063;28;20592;-70
2022/07/12 03:00:27;;;;;;;6.88;5.07;;;15.60;99.90;;;;;;5001926;28;20073;-69
2022/07/12 03:02:53;;;;;;;5.80;5.13;;;15.60;99.90;;;;;;4995645;28;20841;-69
2022/07/12 03:05:19;;;;;;;7.57;5.10;;;15.50;99.90;;;;;;4998964;28;20046;-70
2022/07/12 03:07:44;;;;;;;6.45;5.18;;;15.50;99.90;;;;;;4981785;28;20535;-69
2022/07/12 03:10:10;;;;;;;5.38;4.88;;;15.50;99.90;;;;;;5011385;28;20045;-66
2022/07/12 03:12:37;;;;;;;6.70;5.65;;;15.50;99.90;;;;;;4984372;28;20076;-70
2022/07/12 03:15:04;;;;;;;6.05;5.43;;;15.50;99.90;;;;;;4980070;28;20101;-67
2022/07/12 03:17:29;;;;;;;6.35;5.75;;;15.50;99.90;;;;;;4974525;28;20072;-66
2022/07/12 03:19:55;;;;;;;12.98;6.15;;;15.50;99.90;;;;;;4994712;28;20050;-67
2022/07/12 03:22:21;;;;;;;7.07;6.28;;;15.50;99.90;;;;;;4993002;28;20053;-69
2022/07/12 03:24:47;;;;;;;7.68;5.97;;;15.50;99.90;;;;;;4993901;28;20415;-69
2022/07/12 03:27:12;;;;;;;7.15;6.38;;;15.40;99.90;;;;;;4999152;28;20052;-67
2022/07/12 03:29:39;;;;;;;7.60;6.25;;;15.40;99.90;;;;;;4982663;28;20056;-70
2022/07/12 03:32:06;;;;;;;7.57;6.30;;;15.40;99.90;;;;;;4951138;28;20517;-69
2022/07/12 03:34:32;;;;;;;8.13;6.53;;;15.40;99.90;;;;;;4995317;28;20050;-68
2022/07/12 03:36:58;;;;;;;16.15;6.80;;;15.40;99.90;;;;;;4994417;28;20129;-67
2022/07/12 03:39:24;;;;;;;11.07;7.32;;;15.40;99.90;;;;;;4983788;28;20606;-69
2022/07/12 03:41:50;;;;;;;11.07;7.70;;;15.40;99.90;;;;;;4998063;28;20885;-68
2022/07/12 03:44:16;;;;;;;8.30;7.45;;;15.40;99.90;;;;;;4995778;28;20041;-68
2022/07/12 03:46:42;;;;;;;9.00;7.93;;;15.40;99.90;;;;;;4998714;28;20084;-69
2022/07/12 03:49:08;;;;;;;11.70;8.52;;;15.40;99.90;;;;;;4999890;28;20049;-69
2022/07/12 03:51:34;;;;;;;11.52;8.23;;;15.40;99.90;;;;;;4982968;28;20125;-68
2022/07/12 03:54:00;;;;;;;12.75;8.65;;;15.40;99.90;;;;;;4997917;28;20046;-69
2022/07/12 03:59:10;;;;;;;11.88;8.90;;;15.40;99.90;;;;;;4982199;28;20466;-68
2022/07/12 04:01:36;;;;;;;9.52;8.30;;;15.40;99.90;;;;;;4982207;28;20046;-70
2022/07/12 04:04:02;;;;;;;11.70;9.10;;;15.40;99.90;;;;;;4997546;28;20488;-68
2022/07/12 04:06:29;;;;;;;11.27;8.55;;;15.40;99.90;;;;;;4999568;28;20056;-68
2022/07/12 04:08:55;;;;;;;14.60;9.55;;;15.40;99.90;;;;;;4998037;28;20099;-69
2022/07/12 04:11:21;;;;;;;28.58;9.80;;;15.40;99.90;;;;;;4980669;28;20076;-66
2022/07/12 04:13:47;;;;;;;11.95;8.57;;;15.40;99.90;;;;;;4980691;28;20038;-69
2022/07/12 04:16:12;;;;;;;17.83;8.55;;;15.40;99.90;;;;;;4994163;28;20366;-68
2022/07/12 04:18:38;;;;;;;8.27;7.43;;;15.40;99.90;;;;;;4999913;28;20488;-69
2022/07/12 04:21:04;;;;;;;22.40;7.63;;;15.40;99.90;;;;;;4999387;28;20050;-70
2022/07/12 04:23:30;;;;;;;9.77;7.38;;;15.40;99.90;;;;;;5011597;28;20074;-70
2022/07/12 04:25:56;;;;;;;16.00;6.95;;;15.40;99.90;;;;;;4994517;28;20508;-68
2022/07/12 04:28:22;;;;;;;11.82;5.82;;;15.40;99.90;;;;;;4977258;28;20085;-69
2022/07/12 04:30:48;;;;;;;16.20;5.60;;;15.30;99.90;;;;;;4980942;28;20038;-68
2022/07/12 04:33:15;;;;;;;8.45;5.90;;;15.30;99.90;;;;;;4984730;28;20073;-66
2022/07/12 04:35:41;;;;;;;14.57;5.82;;;15.30;99.90;;;;;;4982412;28;20501;-69
2022/07/12 04:38:07;;;;;;;10.80;5.10;;;15.30;99.90;;;;;;4981569;28;20119;-68
2022/07/12 04:40:34;;;;;;;11.95;5.95;;;15.40;99.90;;;;;;5000817;28;20073;-70
2022/07/12 04:42:59;;;;;;;7.15;5.53;;;15.30;99.90;;;;;;5000172;28;20204;-66
2022/07/12 04:45:25;;;;;;;10.57;6.45;;;15.30;99.90;;;;;;4977486;28;20105;-69
2022/07/12 04:47:51;;;;;;;17.73;6.65;;;15.30;99.90;;;;;;4980365;28;20056;-70
2022/07/12 04:50:17;;;;;;;21.30;6.00;;;15.40;99.90;;;;;;4994543;28;20084;-70
2022/07/12 04:52:43;;;;;;;8.52;6.00;;;15.40;99.90;;;;;;4982276;28;20042;-69
2022/07/12 04:55:09;;;;;;;18.90;5.32;;;15.40;99.90;;;;;;4991710;28;20566;-67
2022/07/12 04:57:35;;;;;;;7.07;4.72;;;15.40;99.90;;;;;;4965526;28;20049;-69
2022/07/12 05:00:03;;;;;;;6.05;5.13;;;15.40;99.90;;;;;;4999162;28;20483;-68
2022/07/12 05:02:29;;;;;;;7.00;5.32;;;15.40;99.90;;;;;;4990188;28;20108;-69
2022/07/12 05:04:54;;;;;;;7.90;5.47;;;15.40;99.90;;;;;;4980223;28;20132;-68
2022/07/12 05:07:20;;;;;;;6.53;5.00;;;15.30;99.90;;;;;;4981664;28;20052;-69
2022/07/12 05:09:46;;;;;;;5.80;5.10;;;15.30;99.90;;;;;;4993779;28;20095;-70
2022/07/12 05:12:12;;;;;;;7.80;5.68;;;15.30;99.90;;;;;;4976725;28;20081;-67
2022/07/12 05:14:37;;;;;;;11.60;5.25;;;15.40;99.90;;;;;;4997986;28;20133;-69
2022/07/12 05:17:03;;;;;;;6.30;5.50;;;15.40;99.90;;;;;;4987565;28;20575;-68
2022/07/12 05:19:29;;;;;;;17.08;6.38;;;15.40;99.90;;;;;;4997023;28;20108;-68
2022/07/12 05:21:55;;;;;;;7.97;5.95;;;15.50;99.90;;;;;;4987904;28;20922;-67
2022/07/12 05:24:21;;;;;;;7.38;6.05;;;15.50;99.90;;;;;;4996528;28;20049;-69
2022/07/12 05:26:47;;;;;;;7.75;5.93;;;15.50;99.90;;;;;;4978293;28;20050;-69
2022/07/12 05:29:12;;;;;;;6.82;5.40;;;15.60;99.90;;;;;;4990689;28;20050;-70
2022/07/12 05:31:38;;;;;;;6.72;5.43;;;15.60;99.90;;;;;;4988362;28;20045;-67
2022/07/12 05:34:04;;;;;;;6.57;5.80;;;15.60;99.90;;;;;;4974433;28;20492;-69
2022/07/12 05:36:30;;;;;;;8.50;6.15;;;15.60;99.90;;;;;;4996335;28;20046;-67
2022/07/12 05:38:56;;;;;;;7.20;4.97;;;15.70;99.90;;;;;;4975260;28;20037;-67
2022/07/12 05:41:22;;;;;;;6.07;5.00;;;15.70;99.90;;;;;;4987547;28;20042;-69
2022/07/12 05:43:47;;;;;;;6.68;5.40;;;15.70;99.90;;;;;;4975683;28;20046;-68
2022/07/12 05:46:13;;;;;;;6.30;5.50;;;15.70;99.90;;;;;;4989113;28;20050;-67
2022/07/12 05:48:39;;;;;;;7.35;5.68;;;15.70;99.90;;;;;;4993365;28;20132;-67
2022/07/12 05:53:50;;;;;;;6.57;5.80;;;15.80;99.90;;;;;;4986294;28;20223;-69
2022/07/12 05:56:16;;;;;;;7.07;5.40;;;15.90;99.90;;;;;;4986716;28;20175;-67
2022/07/12 05:58:42;;;;;;;5.93;4.85;;;15.90;99.90;;;;;;5013511;28;20066;-69
2022/07/12 06:01:08;;;;;;;7.38;4.72;;;16.00;99.90;;;;;;4996103;28;20246;-68
2022/07/12 06:03:34;;;;;;;5.45;4.68;;;16.00;99.90;;;;;;4977778;28;20053;-68
2022/07/12 06:06:00;;;;;;;5.13;4.50;;;16.00;99.90;;;;;;4971898;28;20049;-68
2022/07/12 06:08:26;;;;;;;6.25;5.10;;;16.10;99.90;;;;;;4972308;28;20136;-67
2022/07/12 06:10:51;;;;;;;4.65;4.20;;;16.10;99.90;;;;;;4972271;28;20037;-69
2022/07/12 06:13:17;;;;;;;6.22;5.28;;;16.20;99.90;;;;;;4996662;28;20046;-63
2022/07/12 06:15:43;;;;;;;6.63;5.22;;;16.20;99.90;;;;;;4997201;28;20500;-63
2022/07/12 06:18:09;;;;;;;8.25;5.40;;;16.30;99.90;;;;;;5000176;28;20065;-62
2022/07/12 06:20:34;;;;;;;7.82;6.00;;;16.30;99.90;;;;;;4998076;28;20062;-64
2022/07/12 06:23:00;;;;;;;6.57;5.20;;;16.30;99.90;;;;;;4980539;28;20112;-63
2022/07/12 06:25:26;;;;;;;6.18;5.57;;;16.40;99.90;;;;;;4993816;28;20484;-63
2022/07/12 06:27:52;;;;;;;6.43;5.15;;;16.40;99.90;;;;;;4984359;28;20386;-63
2022/07/12 06:30:19;;;;;;;7.75;5.10;;;16.50;99.90;;;;;;5001689;28;20369;-63
2022/07/12 06:32:46;;;;;;;7.38;5.00;;;16.50;99.90;;;;;;5000644;28;20092;-64
2022/07/12 06:35:13;;;;;;;5.47;4.72;;;16.60;99.90;;;;;;4998420;28;20120;-64
2022/07/12 06:37:39;;;;;;;5.72;4.57;;;16.70;99.90;;;;;;5000518;28;20500;-63
2022/07/12 06:40:06;;;;;;;5.13;4.63;;;16.70;99.90;;;;;;5001845;28;20074;-63
2022/07/12 06:42:32;;;;;;;5.50;4.50;;;16.80;99.90;;;;;;5013686;28;20052;-64
2022/07/12 06:44:59;;;;;;;5.50;4.32;;;16.80;99.90;;;;;;5002323;28;20058;-63
2022/07/12 06:47:25;;;;;;;6.85;4.30;;;16.90;99.90;;;;;;4997277;28;20464;-64
2022/07/12 06:49:51;;;;;;;7.97;4.10;;;17.00;99.90;;;;;;4999360;28;20042;-63
2022/07/12 06:52:17;;;;;;;5.45;3.95;;;17.00;99.90;;;;;;4986631;28;20046;-63
2022/07/12 06:54:43;;;;;;;5.03;3.97;;;17.10;99.90;;;;;;5005082;28;20133;-63
2022/07/12 06:57:09;;;;;;;3.92;3.53;;;17.20;99.90;;;;;;5005842;28;20050;-64
2022/07/12 06:59:35;;;;;;;5.18;3.53;;;17.30;99.90;;;;;;5003112;28;20099;-63
2022/07/12 07:02:01;;;;;;;5.47;3.88;;;17.40;99.90;;;;;;5005520;28;20504;-63
2022/07/12 07:04:27;;;;;;;3.90;3.47;;;17.50;99.90;;;;;;5003708;28;20099;-64
2022/07/12 07:06:53;;;;;;;4.00;3.42;;;17.60;99.90;;;;;;5004427;28;20037;-64
2022/07/12 07:09:19;;;;;;;4.32;3.58;;;17.70;99.90;;;;;;5002451;28;20054;-64
2022/07/12 07:11:45;;;;;;;4.32;3.50;;;17.90;99.90;;;;;;5005089;28;20072;-64
2022/07/12 07:14:11;;;;;;;4.22;3.70;;;18.00;99.90;;;;;;5004743;28;20046;-64
2022/07/12 07:16:37;;;;;;;4.90;3.33;;;18.10;99.90;;;;;;4998611;28;20073;-64
2022/07/12 07:19:03;;;;;;;3.55;3.25;;;18.30;99.90;;;;;;5004573;28;20475;-64
2022/07/12 07:21:29;;;;;;;4.03;3.50;;;18.40;99.90;;;;;;5001204;28;20412;-64
2022/07/12 07:23:55;;;;;;;4.13;3.42;;;18.60;99.90;;;;;;5004339;28;20558;-64
2022/07/12 07:26:22;;;;;;;3.35;3.05;;;18.80;99.90;;;;;;4971790;28;20042;-64
2022/07/12 07:31:36;;;;;;;3.58;3.25;;;19.10;99.90;;;;;;5001247;28;20144;-62
2022/07/12 07:34:03;;;;;;;3.50;2.55;;;19.20;99.90;;;;;;5004567;28;20045;-62
2022/07/12 07:36:30;;;;;;;3.35;2.97;;;19.30;99.90;;;;;;5001295;28;20054;-62
2022/07/12 07:38:57;;;;;;;4.28;2.90;;;19.50;99.90;;;;;;4997316;28;20045;-62
2022/07/12 07:41:23;;;;;;;3.00;2.53;;;19.60;99.90;;;;;;5004145;28;20068;-62
2022/07/12 07:43:49;;;;;;;3.00;2.67;;;19.80;99.90;;;;;;5002512;28;20046;-62
2022/07/12 07:46:15;;;;;;;3.95;2.88;;;19.90;99.90;;;;;;5004288;28;20455;-62
2022/07/12 07:48:41;;;;;;;5.03;2.72;;;20.00;99.90;;;;;;4998186;28;20101;-62
2022/07/12 07:51:07;;;;;;;3.17;2.50;;;20.10;99.90;;;;;;5002456;28;20095;-62
2022/07/12 07:53:32;;;;;;;3.15;2.50;;;20.20;99.90;;;;;;5000342;28;20045;-62
2022/07/12 07:55:58;;;;;;;2.50;2.30;;;20.40;99.90;;;;;;5003490;28;20041;-62
2022/07/12 07:58:24;;;;;;;3.13;2.55;;;20.40;99.90;;;;;;5002691;28;20069;-62
2022/07/12 08:00:51;;;;;;;3.50;2.30;;;20.60;99.90;;;;;;5002108;28;20547;-62
2022/07/12 08:03:18;;;;;;;3.13;2.33;;;20.70;99.90;;;;;;5005126;28;20046;-62
2022/07/12 08:05:44;;;;;;;3.58;2.60;;;20.80;99.90;;;;;;5001496;28;20057;-62
2022/07/12 08:08:09;;;;;;;2.95;2.30;;;21.00;99.90;;;;;;4998337;28;20050;-64
2022/07/12 08:10:35;;;;;;;2.40;2.20;;;21.10;99.90;;;;;;5002774;28;20490;-64
2022/07/12 08:13:01;;;;;;;2.47;2.28;;;21.20;99.90;;;;;;5002589;28;20092;-64
2022/07/12 08:15:27;;;;;;;2.88;2.38;;;21.30;99.90;;;;;;5002875;28;20104;-64
2022/07/12 08:17:53;;;;;;;2.70;2.20;;;21.30;99.90;;;;;;5001295;28;20538;-62
2022/07/12 08:20:19;;;;;;;2.88;1.92;;;21.30;99.90;;;;;;4999585;28;20042;-62
2022/07/12 08:22:45;;;;;;;2.47;2.10;;;21.40;99.90;;;;;;5001345;28;20586;-62
2022/07/12 08:25:14;;;;;;;2.58;2.13;;;21.50;99.90;;;;;;5000659;28;20045;-62
2022/07/12 08:27:40;;;;;;;4.65;2.40;;;21.50;99.90;;;;;;4986616;28;20060;-62
2022/07/12 08:30:07;;;;;;;4.95;2.33;;;21.50;99.90;;;;;;5002372;28;20484;-62
2022/07/12 08:32:33;;;;;;;2.55;1.92;;;21.60;99.90;;;;;;5003450;28;20042;-63
2022/07/12 08:34:59;;;;;;;5.97;2.60;;;21.60;99.90;;;;;;5000900;28;20052;-62
2022/07/12 08:37:25;;;;;;;2.50;2.30;;;21.60;99.90;;;;;;5001944;28;20050;-62
2022/07/12 08:39:51;;;;;;;4.15;2.28;;;21.70;99.90;;;;;;4999330;28;20064;-62
2022/07/12 08:42:18;;;;;;;5.47;2.50;;;21.70;99.90;;;;;;5017881;28;20049;-63
2022/07/12 08:44:53;;;;;;;4.00;2.20;;;21.70;99.90;;;;;;5001075;28;20049;-62
2022/07/12 08:47:19;;;;;;;2.90;2.10;;;21.80;99.90;;;;;;5000625;28;20042;-62
2022/07/12 08:50:11;;;;;;;3.55;2.25;;;21.80;99.90;;;;;;4997180;28;20553;-62
2022/07/12 08:52:41;;;;;;;3.27;2.00;;;21.90;99.90;;;;;;5001669;28;20072;-62
2022/07/12 08:55:35;;;;;;;2.50;2.30;;;22.00;99.90;;;;;;4998934;28;20479;-62
2022/07/12 08:58:14;;;;;;;5.18;2.20;;;22.10;99.90;;;;;;5001615;28;20081;-62
2022/07/12 09:00:39;;;;;;;4.45;2.38;;;22.20;99.90;;;;;;5003202;28;20054;-63
2022/07/12 09:03:06;;;;;;;2.50;1.95;;;22.30;99.90;;;;;;4999148;28;20072;-62
2022/07/12 09:05:33;;;;;;;2.60;2.40;;;22.40;99.90;;;;;;4998389;28;20132;-65
2022/07/12 09:08:06;;;;;;;3.13;2.58;;;22.50;99.90;;;;;;5000636;28;20046;-65
2022/07/12 09:10:32;;;;;;;;;;;22.60;99.90;;;;;;4999856;28;20061;-65
2022/07/12 09:12:59;;;;;;;2.60;2.40;;;22.60;99.90;;;;;;5000628;28;20546;-62
2022/07/12 09:15:26;;;;;;;2.63;2.40;;;22.70;99.90;;;;;;5002772;28;20053;-63
2022/07/12 09:18:01;;;;;;;3.35;2.10;;;22.80;99.90;;;;;;4998640;28;20161;-62
2022/07/12 09:20:27;;;;;;;3.40;2.17;;;22.90;99.90;;;;;;4999254;28;20049;-62
2022/07/12 09:22:59;;;;;;;2.67;2.22;;;23.10;99.90;;;;;;5001760;28;20155;-63
2022/07/12 09:25:25;;;;;;;2.63;2.42;;;23.10;99.90;;;;;;4998677;28;20046;-62
2022/07/12 09:27:56;;;;;;;3.20;2.70;;;23.20;99.90;;;;;;4983015;28;20488;-62
2022/07/12 09:30:24;;;;;;;6.32;2.30;;;23.30;99.90;;;;;;5002063;28;20049;-62
2022/07/12 09:38:21;;;;;;;5.80;2.78;;;23.20;99.90;;;;;;4985289;28;20099;-62
2022/07/12 09:40:49;;;;;;;3.08;2.60;;;23.10;99.90;;;;;;5000614;28;20431;-63
2022/07/12 09:43:16;;;;;;;2.95;2.50;;;23.10;99.90;;;;;;5019083;28;20689;-63
2022/07/12 09:45:43;;;;;;;6.13;2.65;;;23.20;99.90;;;;;;5000156;28;20073;-63
2022/07/12 09:48:13;;;;;;;3.05;2.75;;;23.30;99.90;;;;;;5002563;28;20050;-63
2022/07/12 09:50:39;;;;;;;3.88;2.70;;;23.40;99.90;;;;;;4992758;28;20053;-63
2022/07/12 09:53:09;;;;;;;2.88;2.35;;;23.50;99.90;;;;;;4998516;28;20316;-63
2022/07/12 09:55:38;;;;;;;3.95;2.20;;;23.60;99.90;;;;;;5011882;28;20459;-65
2022/07/12 09:58:06;;;;;;;2.35;2.15;;;23.80;99.90;;;;;;4999227;28;20050;-63
2022/07/12 10:00:33;;;;;;;2.72;2.28;;;24.00;99.90;;;;;;4976668;28;20092;-63
2022/07/12 10:03:00;;;;;;;2.45;2.25;;;24.20;99.90;;;;;;5002557;28;20057;-63
2022/07/12 10:05:27;;;;;;;2.13;1.92;;;24.40;99.90;;;;;;5017306;28;20100;-64
2022/07/12 10:07:53;;;;;;;3.17;2.03;;;24.50;99.90;;;;;;5001397;28;20054;-63
2022/07/12 10:10:19;;;;;;;2.28;2.08;;;24.60;99.90;;;;;;4998060;28;22176;-63
2022/07/12 10:12:46;;;;;;;3.63;2.00;;;24.70;99.90;;;;;;4997789;28;20097;-63
2022/07/12 10:15:17;;;;;;;3.67;2.22;;;24.80;99.90;;;;;;5000742;28;20038;-64
2022/07/12 10:17:53;;;;;;;2.10;1.90;;;25.00;99.90;;;;;;5002721;28;20958;-63
2022/07/12 10:20:24;;;;;;;1.70;1.60;;;25.10;99.60;;;;;;4977016;28;20076;-63
2022/07/12 10:22:54;;;;;;;4.50;1.80;;;25.20;99.50;;;;;;5002766;28;20054;-64
2022/07/12 10:25:32;;;;;;;2.10;1.70;;;25.20;99.60;;;;;;4981343;28;20045;-64
2022/07/12 10:27:59;;;;;;;1.90;1.70;;;25.40;98.70;;;;;;4999418;28;20076;-63
2022/07/12 10:30:26;;;;;;;2.17;1.50;;;25.40;98.70;;;;;;5006107;28;20053;-63
2022/07/12 10:32:58;;;;;;;1.50;1.40;;;25.60;98.40;;;;;;5020282;28;20049;-63
2022/07/12 10:35:25;;;;;;;;;;;25.90;97.90;;;;;;5007036;28;20052;-63
2022/07/12 10:38:14;;;;;;;1.40;1.30;;;26.10;98.20;;;;;;5007138;28;19925;-64
2022/07/12 10:40:44;;;;;;;2.03;1.30;;;26.20;97.60;;;;;;4993275;28;20050;-64
2022/07/12 10:43:10;;;;;;;4.60;1.02;;;26.40;97.40;;;;;;4997237;28;20390;-63
2022/07/12 10:45:41;;;;;;;2.55;1.33;;;26.50;97.00;;;;;;5007016;28;20045;-64
2022/07/12 10:48:20;;;;;;;3.25;1.30;;;26.60;96.00;;;;;;5005590;28;20056;-63
2022/07/12 10:50:48;;;;;;;3.25;1.50;;;26.70;94.70;;;;;;4984490;28;20034;-63
2022/07/12 10:53:34;;;;;;;1.50;1.30;;;26.70;94.50;;;;;;5004715;28;20034;-64
2022/07/12 10:56:17;;;;;;;3.25;1.42;;;26.90;94.80;;;;;;5005466;28;20473;-64
2022/07/12 10:58:53;;;;;;;1.70;1.27;;;27.00;93.80;;;;;;5005069;28;20135;-64
2022/07/12 11:01:23;;;;;;;1.30;1.17;;;27.10;93.30;;;;;;5004921;28;20131;-64
2022/07/12 11:04:09;;;;;;;1.48;1.15;;;27.20;92.00;;;;;;5003562;28;20396;-64
2022/07/12 11:06:38;;;;;;;1.42;1.10;;;27.10;91.10;;;;;;5004507;28;20077;-64
2022/07/12 11:09:11;;;;;;;1.67;1.33;;;27.10;91.00;;;;;;5000745;28;20053;-64
2022/07/12 11:11:48;;;;;;;3.25;1.35;;;27.00;90.90;;;;;;5004395;28;20081;-64
2022/07/12 11:14:30;;;;;;;1.30;1.00;;;27.00;90.60;;;;;;5001945;28;20050;-64
2022/07/12 11:16:57;;;;;;;2.42;0.82;;;26.90;90.70;;;;;;5003787;28;20392;-64
2022/07/12 11:19:25;;;;;;;1.00;0.90;;;27.00;90.50;;;;;;5002437;28;20056;-64
2022/07/12 11:21:55;;;;;;;1.25;0.90;;;27.00;90.40;;;;;;5004096;28;20061;-64
2022/07/12 11:24:26;;;;;;;1.48;0.80;;;27.10;89.60;;;;;;5000785;28;20046;-64
2022/07/12 11:26:52;;;;;;;0.90;0.70;;;27.00;88.50;;;;;;5003374;28;20453;-64
2022/07/12 11:29:19;;;;;;;1.00;0.80;;;27.10;87.80;;;;;;4979692;28;20058;-64
2022/07/12 11:31:46;;;;;;;1.30;0.80;;;27.30;85.40;;;;;;5004968;28;20042;-64
2022/07/12 11:34:25;;;;;;;1.95;1.10;;;27.40;84.50;;;;;;5002323;28;20049;-64
2022/07/12 11:36:55;;;;;;;2.20;1.10;;;27.50;85.30;;;;;;5020336;28;20034;-64
2022/07/12 11:39:31;;;;;;;1.15;0.90;;;27.60;84.40;;;;;;5015367;28;20069;-64
2022/07/12 11:41:58;;;;;;;1.98;1.10;;;27.70;85.20;;;;;;5001661;28;20053;-64
2022/07/12 11:44:45;;;;;;;1.27;1.02;;;27.90;85.30;;;;;;5003599;28;20045;-64
2022/07/12 11:47:12;;;;;;;2.55;1.08;;;28.00;83.40;;;;;;5004971;28;20045;-64
2022/07/12 11:49:52;;;;;;;1.55;1.10;;;28.00;80.80;;;;;;5003850;28;20051;-64
2022/07/12 11:52:20;;;;;;;1.70;0.90;;;28.00;81.70;;;;;;4998922;28;20085;-64
2022/07/12 11:54:49;;;;;;;1.15;0.90;;;28.10;82.70;;;;;;5014514;28;20073;-64
2022/07/12 11:57:18;;;;;;;3.13;0.90;;;28.20;79.10;;;;;;4996441;28;20108;-63
2022/07/12 11:59:44;;;;;;;1.60;1.08;;;28.30;77.00;;;;;;4993198;28;20045;-62
2022/07/12 12:02:13;;;;;;;2.80;1.48;;;28.30;76.50;;;;;;5011957;28;20653;-62
2022/07/12 12:04:53;;;;;;;2.28;1.17;;;28.30;77.40;;;;;;4994846;28;20054;-62
2022/07/12 12:07:20;;;;;;;2.95;1.10;;;28.50;78.10;;;;;;4995670;28;20474;-62
2022/07/12 12:10:05;;;;;;;1.70;1.30;;;28.80;77.10;;;;;;4959119;28;20038;-64
2022/07/12 12:12:41;;;;;;;1.10;1.00;;;29.10;75.90;;;;;;4999160;28;20053;-64
2022/07/12 12:15:09;;;;;;;1.13;0.80;;;29.20;74.70;;;;;;4990262;28;20037;-64
2022/07/12 12:17:36;;;;;;;2.83;0.93;;;29.10;72.80;;;;;;4988071;28;20076;-64
2022/07/12 12:20:32;;;;;;;3.15;0.90;;;29.10;71.30;;;;;;4993835;28;20474;-65
2022/07/12 12:23:00;;;;;;;1.58;0.93;;;29.10;71.20;;;;;;4962690;28;20526;-63
2022/07/12 12:25:27;;;;;;;1.52;0.80;;;29.10;70.50;;;;;;4992155;28;20506;-64
2022/07/12 12:28:00;;;;;;;1.42;1.20;;;29.20;70.70;;;;;;4978255;28;20049;-64
2022/07/12 12:30:26;;;;;;;3.65;1.73;;;29.40;71.90;;;;;;4995136;28;20184;-64
2022/07/12 12:33:35;;;;;;;2.38;1.45;;;29.60;71.10;;;;;;4990982;28;20051;-64
2022/07/12 12:36:40;;;;;;;1.75;1.10;;;29.80;71.20;;;;;;4994836;28;20052;-64
2022/07/12 12:39:06;;;;;;;3.78;0.90;;;30.00;70.20;;;;;;4976719;28;20571;-65
2022/07/12 12:41:41;;;;;;;1.38;1.27;;;30.10;71.10;;;;;;4991156;28;20653;-65
2022/07/12 12:44:12;;;;;;;3.42;1.30;;;30.30;70.30;;;;;;5008337;28;20123;-64
2022/07/12 12:46:55;;;;;;;2.53;1.45;;;30.40;70.40;;;;;;4994540;28;20049;-64
2022/07/12 12:49:48;;;;;;;2.22;1.63;;;30.40;69.50;;;;;;4993542;28;20080;-65
2022/07/12 12:52:14;;;;;;;3.15;1.60;;;30.40;69.00;;;;;;4993115;28;20388;-64
2022/07/12 12:54:40;;;;;;;2.22;2.00;;;30.40;68.60;;;;;;4992788;28;20180;-63
2022/07/12 12:57:07;;;;;;;2.30;1.65;;;30.40;67.60;;;;;;4978283;28;20045;-63
2022/07/12 12:59:34;;;;;;;4.07;1.42;;;30.40;67.40;;;;;;5012576;28;20045;-63
2022/07/12 13:02:00;;;;;;;4.13;2.17;;;30.50;68.10;;;;;;4993713;28;20038;-65
2022/07/12 13:04:30;;;;;;;4.50;2.40;;;30.50;67.80;;;;;;4993231;28;20778;-65